sensor_id;sensor_type;location;lat;lon;timestamp;temperature;humidity
54124;DHT22;55741;53.252;5.788;2023-02-01T00:00:33;6.30;99.90
54124;DHT22;55741;53.252;5.788;2023-02-01T00:03:02;6.30;99.90
54124;DHT22;55741;53.252;5.788;2023-02-01T00:05:28;6.30;99.90
54124;DHT22;55741;53.252;5.788;2023-02-01T00:07:54;6.30;99.90
54124;DHT22;55741;53.252;5.788;2023-02-01T00:10:19;6.30;99.90
54124;DHT22;55741;53.252;5.788;2023-02-01T00:12:45;6.30;99.90
54124;DHT22;55741;53.252;5.788;2023-02-01T00:15:11;6.30;99.90
54124;DHT22;55741;53.252;5.788;2023-02-01T00:17:43;6.30;99.90
54124;DHT22;55741;53.252;5.788;2023-02-01T00:20:12;6.30;99.90
54124;DHT22;55741;53.252;5.788;2023-02-01T00:22:38;6.30;99.90
54124;DHT22;55741;53.252;5.788;2023-02-01T00:25:05;6.30;99.90
54124;DHT22;55741;53.252;5.788;2023-02-01T00:27:31;6.30;99.90
54124;DHT22;55741;53.252;5.788;2023-02-01T00:29:57;6.30;99.90
54124;DHT22;55741;53.252;5.788;2023-02-01T00:32:23;6.30;99.90
54124;DHT22;55741;53.252;5.788;2023-02-01T00:34:48;6.30;99.90
54124;DHT22;55741;53.252;5.788;2023-02-01T00:37:16;6.30;99.90
54124;DHT22;55741;53.252;5.788;2023-02-01T00:39:42;6.30;99.90
54124;DHT22;55741;53.252;5.788;2023-02-01T00:42:08;6.40;99.90
54124;DHT22;55741;53.252;5.788;2023-02-01T00:44:34;6.30;99.90
54124;DHT22;55741;53.252;5.788;2023-02-01T00:47:00;6.30;99.90
54124;DHT22;55741;53.252;5.788;2023-02-01T00:49:27;6.40;99.90
54124;DHT22;55741;53.252;5.788;2023-02-01T00:51:54;6.30;99.90
54124;DHT22;55741;53.252;5.788;2023-02-01T00:54:20;6.40;99.90
54124;DHT22;55741;53.252;5.788;2023-02-01T00:56:45;6.40;99.90
54124;DHT22;55741;53.252;5.788;2023-02-01T00:59:12;6.30;99.90
54124;DHT22;55741;53.252;5.788;2023-02-01T01:01:38;6.40;99.90
54124;DHT22;55741;53.252;5.788;2023-02-01T01:04:04;6.40;99.90
54124;DHT22;55741;53.252;5.788;2023-02-01T01:06:43;6.40;99.90
54124;DHT22;55741;53.252;5.788;2023-02-01T01:09:09;6.40;99.90
54124;DHT22;55741;53.252;5.788;2023-02-01T01:11:37;6.40;99.90
54124;DHT22;55741;53.252;5.788;2023-02-01T01:14:12;6.50;99.90
54124;DHT22;55741;53.252;5.788;2023-02-01T01:16:38;6.40;99.90
54124;DHT22;55741;53.252;5.788;2023-02-01T01:19:04;6.50;99.90
54124;DHT22;55741;53.252;5.788;2023-02-01T01:21:31;6.50;99.90
54124;DHT22;55741;53.252;5.788;2023-02-01T01:23:57;6.50;99.90
54124;DHT22;55741;53.252;5.788;2023-02-01T01:26:25;6.50;99.90
54124;DHT22;55741;53.252;5.788;2023-02-01T01:28:55;6.40;99.90
54124;DHT22;55741;53.252;5.788;2023-02-01T01:31:22;6.40;99.90
54124;DHT22;55741;53.252;5.788;2023-02-01T01:33:49;6.40;99.90
54124;DHT22;55741;53.252;5.788;2023-02-01T01:36:16;6.30;99.90
54124;DHT22;55741;53.252;5.788;2023-02-01T01:38:43;6.30;99.90
54124;DHT22;55741;53.252;5.788;2023-02-01T01:41:14;6.30;99.90
54124;DHT22;55741;53.252;5.788;2023-02-01T01:46:29;6.30;99.90
54124;DHT22;55741;53.252;5.788;2023-02-01T01:51:37;6.20;99.90
54124;DHT22;55741;53.252;5.788;2023-02-01T01:54:33;6.20;99.90
54124;DHT22;55741;53.252;5.788;2023-02-01T01:57:11;6.20;99.90
54124;DHT22;55741;53.252;5.788;2023-02-01T01:59:41;6.20;99.90
54124;DHT22;55741;53.252;5.788;2023-02-01T02:02:20;6.20;99.90
54124;DHT22;55741;53.252;5.788;2023-02-01T02:04:53;6.20;99.90
54124;DHT22;55741;53.252;5.788;2023-02-01T02:07:23;6.20;99.90
54124;DHT22;55741;53.252;5.788;2023-02-01T02:09:50;6.20;99.90
54124;DHT22;55741;53.252;5.788;2023-02-01T02:12:16;6.20;99.90
54124;DHT22;55741;53.252;5.788;2023-02-01T02:14:42;6.20;99.90
54124;DHT22;55741;53.252;5.788;2023-02-01T02:17:30;6.20;99.90
54124;DHT22;55741;53.252;5.788;2023-02-01T02:42:29;6.30;99.90
54124;DHT22;55741;53.252;5.788;2023-02-01T02:45:21;6.30;99.90
54124;DHT22;55741;53.252;5.788;2023-02-01T02:48:52;6.30;99.90
54124;DHT22;55741;53.252;5.788;2023-02-01T02:51:46;6.30;99.90
54124;DHT22;55741;53.252;5.788;2023-02-01T02:54:35;6.30;99.90
54124;DHT22;55741;53.252;5.788;2023-02-01T02:57:22;6.40;99.90
54124;DHT22;55741;53.252;5.788;2023-02-01T03:00:12;6.30;99.90
54124;DHT22;55741;53.252;5.788;2023-02-01T03:02:58;6.40;99.90
54124;DHT22;55741;53.252;5.788;2023-02-01T03:05:46;6.30;99.90
54124;DHT22;55741;53.252;5.788;2023-02-01T03:08:21;6.40;99.90
54124;DHT22;55741;53.252;5.788;2023-02-01T03:13:52;6.40;99.90
54124;DHT22;55741;53.252;5.788;2023-02-01T03:16:36;6.40;99.90
54124;DHT22;55741;53.252;5.788;2023-02-01T03:19:19;6.40;99.90
54124;DHT22;55741;53.252;5.788;2023-02-01T03:21:56;6.40;99.90
54124;DHT22;55741;53.252;5.788;2023-02-01T03:27:30;6.40;99.90
54124;DHT22;55741;53.252;5.788;2023-02-01T03:30:05;6.40;99.90
54124;DHT22;55741;53.252;5.788;2023-02-01T03:32:34;6.40;99.90
54124;DHT22;55741;53.252;5.788;2023-02-01T03:35:25;6.50;99.90
54124;DHT22;55741;53.252;5.788;2023-02-01T03:37:56;6.40;99.90
54124;DHT22;55741;53.252;5.788;2023-02-01T03:40:25;6.40;99.90
54124;DHT22;55741;53.252;5.788;2023-02-01T03:42:55;6.40;99.90
54124;DHT22;55741;53.252;5.788;2023-02-01T03:45:26;6.40;99.90
54124;DHT22;55741;53.252;5.788;2023-02-01T03:47:55;6.40;99.90
54124;DHT22;55741;53.252;5.788;2023-02-01T03:50:26;6.40;99.90
54124;DHT22;55741;53.252;5.788;2023-02-01T03:53:01;6.40;99.90
54124;DHT22;55741;53.252;5.788;2023-02-01T03:55:29;6.40;99.90
54124;DHT22;55741;53.252;5.788;2023-02-01T04:00:38;6.40;99.90
54124;DHT22;55741;53.252;5.788;2023-02-01T04:03:05;6.40;99.90
54124;DHT22;55741;53.252;5.788;2023-02-01T04:05:31;6.40;99.90
54124;DHT22;55741;53.252;5.788;2023-02-01T04:07:58;6.30;99.90
54124;DHT22;55741;53.252;5.788;2023-02-01T04:10:24;6.30;99.90
54124;DHT22;55741;53.252;5.788;2023-02-01T04:12:50;6.30;99.90
54124;DHT22;55741;53.252;5.788;2023-02-01T04:15:16;6.20;99.90
54124;DHT22;55741;53.252;5.788;2023-02-01T04:17:42;6.20;99.90
54124;DHT22;55741;53.252;5.788;2023-02-01T04:20:08;6.20;99.90
54124;DHT22;55741;53.252;5.788;2023-02-01T04:22:38;6.20;99.90
54124;DHT22;55741;53.252;5.788;2023-02-01T04:25:06;6.20;99.90
54124;DHT22;55741;53.252;5.788;2023-02-01T04:27:34;6.20;99.90
54124;DHT22;55741;53.252;5.788;2023-02-01T04:30:00;6.20;99.90
54124;DHT22;55741;53.252;5.788;2023-02-01T04:32:26;6.10;99.90
54124;DHT22;55741;53.252;5.788;2023-02-01T04:34:52;6.10;99.90
54124;DHT22;55741;53.252;5.788;2023-02-01T04:37:18;6.10;99.90
54124;DHT22;55741;53.252;5.788;2023-02-01T04:39:46;6.10;99.90
54124;DHT22;55741;53.252;5.788;2023-02-01T04:42:13;6.10;99.90
54124;DHT22;55741;53.252;5.788;2023-02-01T04:44:39;6.10;99.90
54124;DHT22;55741;53.252;5.788;2023-02-01T04:47:07;6.10;99.90
54124;DHT22;55741;53.252;5.788;2023-02-01T04:49:39;6.10;99.90
54124;DHT22;55741;53.252;5.788;2023-02-01T04:52:05;6.20;99.90
54124;DHT22;55741;53.252;5.788;2023-02-01T04:54:31;6.20;99.90
54124;DHT22;55741;53.252;5.788;2023-02-01T04:56:57;6.20;99.90
54124;DHT22;55741;53.252;5.788;2023-02-01T04:59:23;6.30;99.90
54124;DHT22;55741;53.252;5.788;2023-02-01T05:01:49;6.30;99.90
54124;DHT22;55741;53.252;5.788;2023-02-01T05:04:15;6.30;99.90
54124;DHT22;55741;53.252;5.788;2023-02-01T05:06:44;6.30;99.90
54124;DHT22;55741;53.252;5.788;2023-02-01T05:09:10;6.40;99.90
54124;DHT22;55741;53.252;5.788;2023-02-01T05:11:36;6.30;99.90
54124;DHT22;55741;53.252;5.788;2023-02-01T05:14:24;6.30;99.90
54124;DHT22;55741;53.252;5.788;2023-02-01T05:16:53;6.30;99.90
54124;DHT22;55741;53.252;5.788;2023-02-01T05:19:20;6.30;99.90
54124;DHT22;55741;53.252;5.788;2023-02-01T05:21:47;6.30;99.90
54124;DHT22;55741;53.252;5.788;2023-02-01T05:24:14;6.30;99.90
54124;DHT22;55741;53.252;5.788;2023-02-01T05:26:45;6.30;99.90
54124;DHT22;55741;53.252;5.788;2023-02-01T05:29:12;6.40;99.90
54124;DHT22;55741;53.252;5.788;2023-02-01T05:31:38;6.40;99.90
54124;DHT22;55741;53.252;5.788;2023-02-01T05:34:04;6.30;99.90
54124;DHT22;55741;53.252;5.788;2023-02-01T05:36:32;6.30;99.90
54124;DHT22;55741;53.252;5.788;2023-02-01T05:38:57;6.30;99.90
54124;DHT22;55741;53.252;5.788;2023-02-01T05:41:24;6.20;99.90
54124;DHT22;55741;53.252;5.788;2023-02-01T05:43:51;6.20;99.90
54124;DHT22;55741;53.252;5.788;2023-02-01T05:46:17;6.20;99.90
54124;DHT22;55741;53.252;5.788;2023-02-01T05:48:43;6.20;99.90
54124;DHT22;55741;53.252;5.788;2023-02-01T05:51:10;6.20;99.90
54124;DHT22;55741;53.252;5.788;2023-02-01T05:53:37;6.20;99.90
54124;DHT22;55741;53.252;5.788;2023-02-01T05:56:03;6.20;99.90
54124;DHT22;55741;53.252;5.788;2023-02-01T05:58:34;6.10;99.90
54124;DHT22;55741;53.252;5.788;2023-02-01T06:01:01;6.10;99.90
54124;DHT22;55741;53.252;5.788;2023-02-01T06:03:27;6.10;99.90
54124;DHT22;55741;53.252;5.788;2023-02-01T06:05:53;6.10;99.90
54124;DHT22;55741;53.252;5.788;2023-02-01T06:08:19;6.10;99.90
54124;DHT22;55741;53.252;5.788;2023-02-01T06:10:45;6.10;99.90
54124;DHT22;55741;53.252;5.788;2023-02-01T06:13:15;6.10;99.90
54124;DHT22;55741;53.252;5.788;2023-02-01T06:15:41;6.10;99.90
54124;DHT22;55741;53.252;5.788;2023-02-01T06:18:11;6.20;99.90
54124;DHT22;55741;53.252;5.788;2023-02-01T06:20:36;6.20;99.90
54124;DHT22;55741;53.252;5.788;2023-02-01T06:23:02;6.20;99.90
54124;DHT22;55741;53.252;5.788;2023-02-01T06:25:30;6.20;99.90
54124;DHT22;55741;53.252;5.788;2023-02-01T06:28:00;6.20;99.90
54124;DHT22;55741;53.252;5.788;2023-02-01T06:30:26;6.20;99.90
54124;DHT22;55741;53.252;5.788;2023-02-01T06:32:52;6.20;99.90
54124;DHT22;55741;53.252;5.788;2023-02-01T06:35:21;6.30;99.90
54124;DHT22;55741;53.252;5.788;2023-02-01T06:37:47;6.20;99.90
54124;DHT22;55741;53.252;5.788;2023-02-01T06:40:13;6.30;99.90
54124;DHT22;55741;53.252;5.788;2023-02-01T06:42:41;6.20;99.90
54124;DHT22;55741;53.252;5.788;2023-02-01T06:45:09;6.30;99.90
54124;DHT22;55741;53.252;5.788;2023-02-01T06:47:37;6.30;99.90
54124;DHT22;55741;53.252;5.788;2023-02-01T06:50:03;6.20;99.90
54124;DHT22;55741;53.252;5.788;2023-02-01T06:52:30;6.20;99.90
54124;DHT22;55741;53.252;5.788;2023-02-01T06:54:55;6.20;99.90
54124;DHT22;55741;53.252;5.788;2023-02-01T06:57:21;6.20;99.90
54124;DHT22;55741;53.252;5.788;2023-02-01T06:59:47;6.10;99.90
54124;DHT22;55741;53.252;5.788;2023-02-01T07:02:13;6.10;99.90
54124;DHT22;55741;53.252;5.788;2023-02-01T07:04:39;6.10;99.90
54124;DHT22;55741;53.252;5.788;2023-02-01T07:07:05;6.10;99.90
54124;DHT22;55741;53.252;5.788;2023-02-01T07:09:31;6.00;99.90
54124;DHT22;55741;53.252;5.788;2023-02-01T07:11:57;6.10;99.90
54124;DHT22;55741;53.252;5.788;2023-02-01T07:14:42;6.00;99.90
54124;DHT22;55741;53.252;5.788;2023-02-01T07:17:29;6.00;99.90
54124;DHT22;55741;53.252;5.788;2023-02-01T07:20:15;6.00;99.90
54124;DHT22;55741;53.252;5.788;2023-02-01T07:22:41;6.00;99.90
54124;DHT22;55741;53.252;5.788;2023-02-01T07:25:07;6.00;99.90
54124;DHT22;55741;53.252;5.788;2023-02-01T07:27:34;6.00;99.90
54124;DHT22;55741;53.252;5.788;2023-02-01T07:30:01;6.00;99.90
54124;DHT22;55741;53.252;5.788;2023-02-01T07:32:28;6.00;99.90
54124;DHT22;55741;53.252;5.788;2023-02-01T07:34:54;6.00;99.90
54124;DHT22;55741;53.252;5.788;2023-02-01T07:37:20;6.00;99.90
54124;DHT22;55741;53.252;5.788;2023-02-01T07:39:46;6.10;99.90
54124;DHT22;55741;53.252;5.788;2023-02-01T07:42:12;6.10;99.90
54124;DHT22;55741;53.252;5.788;2023-02-01T07:44:38;6.10;99.90
54124;DHT22;55741;53.252;5.788;2023-02-01T07:47:05;6.10;99.90
54124;DHT22;55741;53.252;5.788;2023-02-01T07:49:31;6.10;99.90
54124;DHT22;55741;53.252;5.788;2023-02-01T07:51:59;6.10;99.90
54124;DHT22;55741;53.252;5.788;2023-02-01T07:54:25;6.10;99.90
54124;DHT22;55741;53.252;5.788;2023-02-01T07:56:51;6.10;99.90
54124;DHT22;55741;53.252;5.788;2023-02-01T07:59:16;6.10;99.90
54124;DHT22;55741;53.252;5.788;2023-02-01T08:01:42;6.10;99.90
54124;DHT22;55741;53.252;5.788;2023-02-01T08:04:11;6.10;99.90
54124;DHT22;55741;53.252;5.788;2023-02-01T08:06:38;6.20;99.90
54124;DHT22;55741;53.252;5.788;2023-02-01T08:09:05;6.20;99.90
54124;DHT22;55741;53.252;5.788;2023-02-01T08:11:31;6.20;99.90
54124;DHT22;55741;53.252;5.788;2023-02-01T08:13:58;6.20;99.90
54124;DHT22;55741;53.252;5.788;2023-02-01T08:16:24;6.20;99.90
54124;DHT22;55741;53.252;5.788;2023-02-01T08:18:50;6.20;99.90
54124;DHT22;55741;53.252;5.788;2023-02-01T08:21:22;6.30;99.90
54124;DHT22;55741;53.252;5.788;2023-02-01T08:23:49;6.30;99.90
54124;DHT22;55741;53.252;5.788;2023-02-01T08:26:16;6.30;99.90
54124;DHT22;55741;53.252;5.788;2023-02-01T08:28:46;6.30;99.90
54124;DHT22;55741;53.252;5.788;2023-02-01T08:31:15;6.30;99.90
54124;DHT22;55741;53.252;5.788;2023-02-01T08:33:42;6.30;99.90
54124;DHT22;55741;53.252;5.788;2023-02-01T08:36:09;6.30;99.90
54124;DHT22;55741;53.252;5.788;2023-02-01T08:38:36;6.30;99.90
54124;DHT22;55741;53.252;5.788;2023-02-01T08:41:13;6.40;99.90
54124;DHT22;55741;53.252;5.788;2023-02-01T08:43:40;6.40;99.90
54124;DHT22;55741;53.252;5.788;2023-02-01T08:46:17;6.40;99.90
54124;DHT22;55741;53.252;5.788;2023-02-01T08:48:49;6.40;99.90
54124;DHT22;55741;53.252;5.788;2023-02-01T08:51:17;6.40;99.90
54124;DHT22;55741;53.252;5.788;2023-02-01T08:53:43;6.30;99.90
54124;DHT22;55741;53.252;5.788;2023-02-01T08:56:12;6.40;99.90
54124;DHT22;55741;53.252;5.788;2023-02-01T08:58:42;6.40;99.90
54124;DHT22;55741;53.252;5.788;2023-02-01T09:01:10;6.40;99.90
54124;DHT22;55741;53.252;5.788;2023-02-01T09:03:38;6.40;99.90
54124;DHT22;55741;53.252;5.788;2023-02-01T09:06:06;6.40;99.90
54124;DHT22;55741;53.252;5.788;2023-02-01T09:08:35;6.50;99.90
54124;DHT22;55741;53.252;5.788;2023-02-01T09:11:03;6.40;99.90
54124;DHT22;55741;53.252;5.788;2023-02-01T09:13:32;6.50;99.90
54124;DHT22;55741;53.252;5.788;2023-02-01T09:15:59;6.50;99.90
54124;DHT22;55741;53.252;5.788;2023-02-01T09:18:25;6.50;99.90
54124;DHT22;55741;53.252;5.788;2023-02-01T09:20:51;6.50;99.90
54124;DHT22;55741;53.252;5.788;2023-02-01T09:23:18;6.50;99.90
54124;DHT22;55741;53.252;5.788;2023-02-01T09:25:46;6.50;99.90
54124;DHT22;55741;53.252;5.788;2023-02-01T09:28:14;6.50;99.90
54124;DHT22;55741;53.252;5.788;2023-02-01T09:30:39;6.60;99.90
54124;DHT22;55741;53.252;5.788;2023-02-01T09:33:05;6.60;99.90
54124;DHT22;55741;53.252;5.788;2023-02-01T09:35:31;6.60;99.90
54124;DHT22;55741;53.252;5.788;2023-02-01T09:37:57;6.60;99.90
54124;DHT22;55741;53.252;5.788;2023-02-01T09:40:23;6.60;99.90
54124;DHT22;55741;53.252;5.788;2023-02-01T09:45:35;6.60;99.90
54124;DHT22;55741;53.252;5.788;2023-02-01T09:48:11;6.60;99.90
54124;DHT22;55741;53.252;5.788;2023-02-01T09:50:43;6.60;99.90
54124;DHT22;55741;53.252;5.788;2023-02-01T09:55:43;6.60;99.90
54124;DHT22;55741;53.252;5.788;2023-02-01T10:00:51;6.70;99.90
54124;DHT22;55741;53.252;5.788;2023-02-01T10:03:18;6.70;99.90
54124;DHT22;55741;53.252;5.788;2023-02-01T10:06:06;6.70;99.90
54124;DHT22;55741;53.252;5.788;2023-02-01T10:28:18;7.10;99.90
54124;DHT22;55741;53.252;5.788;2023-02-01T10:30:48;7.10;99.90
54124;DHT22;55741;53.252;5.788;2023-02-01T10:35:44;7.10;99.90
54124;DHT22;55741;53.252;5.788;2023-02-01T10:38:24;7.20;99.90
54124;DHT22;55741;53.252;5.788;2023-02-01T10:40:57;7.20;99.90
54124;DHT22;55741;53.252;5.788;2023-02-01T10:43:26;7.20;99.90
54124;DHT22;55741;53.252;5.788;2023-02-01T10:45:52;7.20;99.90
54124;DHT22;55741;53.252;5.788;2023-02-01T10:48:18;7.10;99.90
54124;DHT22;55741;53.252;5.788;2023-02-01T10:50:58;7.10;99.90
54124;DHT22;55741;53.252;5.788;2023-02-01T10:56:10;7.20;99.90
54124;DHT22;55741;53.252;5.788;2023-02-01T10:58:44;7.20;99.90
54124;DHT22;55741;53.252;5.788;2023-02-01T11:01:34;7.30;99.90
54124;DHT22;55741;53.252;5.788;2023-02-01T11:04:03;7.30;99.90
54124;DHT22;55741;53.252;5.788;2023-02-01T11:06:36;7.30;99.90
54124;DHT22;55741;53.252;5.788;2023-02-01T11:09:10;7.30;99.90
54124;DHT22;55741;53.252;5.788;2023-02-01T11:17:12;7.20;99.90
54124;DHT22;55741;53.252;5.788;2023-02-01T11:19:46;7.30;99.90
54124;DHT22;55741;53.252;5.788;2023-02-01T11:22:13;7.30;99.90
54124;DHT22;55741;53.252;5.788;2023-02-01T11:24:41;7.30;99.90
54124;DHT22;55741;53.252;5.788;2023-02-01T11:27:19;7.30;99.90
54124;DHT22;55741;53.252;5.788;2023-02-01T11:29:47;7.30;99.90
54124;DHT22;55741;53.252;5.788;2023-02-01T11:32:17;7.30;99.90
54124;DHT22;55741;53.252;5.788;2023-02-01T11:34:47;7.40;99.90
54124;DHT22;55741;53.252;5.788;2023-02-01T11:37:25;7.40;99.90
54124;DHT22;55741;53.252;5.788;2023-02-01T11:39:58;7.40;99.90
54124;DHT22;55741;53.252;5.788;2023-02-01T11:42:25;7.50;99.90
54124;DHT22;55741;53.252;5.788;2023-02-01T11:44:51;7.50;99.90
54124;DHT22;55741;53.252;5.788;2023-02-01T11:47:40;7.50;99.90
54124;DHT22;55741;53.252;5.788;2023-02-01T11:50:34;7.50;99.90
54124;DHT22;55741;53.252;5.788;2023-02-01T11:53:17;7.50;99.90
54124;DHT22;55741;53.252;5.788;2023-02-01T12:04:13;7.70;99.90
54124;DHT22;55741;53.252;5.788;2023-02-01T12:06:56;7.70;99.90
54124;DHT22;55741;53.252;5.788;2023-02-01T12:09:55;7.70;99.90
54124;DHT22;55741;53.252;5.788;2023-02-01T12:26:38;7.70;99.90
54124;DHT22;55741;53.252;5.788;2023-02-01T12:29:32;7.70;99.90
54124;DHT22;55741;53.252;5.788;2023-02-01T12:45:58;8.20;99.90
54124;DHT22;55741;53.252;5.788;2023-02-01T12:51:35;8.30;99.90
54124;DHT22;55741;53.252;5.788;2023-02-01T12:56:56;8.30;99.90
54124;DHT22;55741;53.252;5.788;2023-02-01T12:59:30;8.30;99.90
54124;DHT22;55741;53.252;5.788;2023-02-01T13:02:25;8.20;99.90
54124;DHT22;55741;53.252;5.788;2023-02-01T13:07:55;8.10;99.90
54124;DHT22;55741;53.252;5.788;2023-02-01T13:10:42;8.00;99.90
54124;DHT22;55741;53.252;5.788;2023-02-01T13:16:10;7.90;99.90
54124;DHT22;55741;53.252;5.788;2023-02-01T13:18:39;7.80;99.90
54124;DHT22;55741;53.252;5.788;2023-02-01T13:21:22;7.80;99.90
54124;DHT22;55741;53.252;5.788;2023-02-01T13:23:50;7.80;99.90
54124;DHT22;55741;53.252;5.788;2023-02-01T13:26:17;7.80;99.90
54124;DHT22;55741;53.252;5.788;2023-02-01T13:28:49;7.80;99.90
54124;DHT22;55741;53.252;5.788;2023-02-01T13:37:01;7.80;99.90
54124;DHT22;55741;53.252;5.788;2023-02-01T13:45:20;7.80;99.90
54124;DHT22;55741;53.252;5.788;2023-02-01T13:47:50;7.80;99.90
54124;DHT22;55741;53.252;5.788;2023-02-01T13:50:34;7.90;99.90
54124;DHT22;55741;53.252;5.788;2023-02-01T13:53:05;8.00;99.90
54124;DHT22;55741;53.252;5.788;2023-02-01T13:56:01;7.90;99.90
54124;DHT22;55741;53.252;5.788;2023-02-01T13:58:36;7.90;99.90
54124;DHT22;55741;53.252;5.788;2023-02-01T14:03:58;7.80;99.90
54124;DHT22;55741;53.252;5.788;2023-02-01T14:09:17;7.80;99.90
54124;DHT22;55741;53.252;5.788;2023-02-01T14:19:37;7.80;99.90
54124;DHT22;55741;53.252;5.788;2023-02-01T14:24:54;7.80;99.90
54124;DHT22;55741;53.252;5.788;2023-02-01T14:27:26;7.80;99.90
54124;DHT22;55741;53.252;5.788;2023-02-01T14:29:58;7.80;99.90
54124;DHT22;55741;53.252;5.788;2023-02-01T14:32:34;7.90;99.90
54124;DHT22;55741;53.252;5.788;2023-02-01T14:35:05;7.90;99.90
54124;DHT22;55741;53.252;5.788;2023-02-01T14:37:35;7.90;99.90
54124;DHT22;55741;53.252;5.788;2023-02-01T14:40:14;7.90;99.90
54124;DHT22;55741;53.252;5.788;2023-02-01T14:50:32;7.90;99.90
54124;DHT22;55741;53.252;5.788;2023-02-01T14:58:19;7.90;99.90
54124;DHT22;55741;53.252;5.788;2023-02-01T15:00:55;7.90;99.90
54124;DHT22;55741;53.252;5.788;2023-02-01T15:03:45;7.90;99.90
54124;DHT22;55741;53.252;5.788;2023-02-01T15:06:26;7.80;99.90
54124;DHT22;55741;53.252;5.788;2023-02-01T15:09:00;7.80;99.90
54124;DHT22;55741;53.252;5.788;2023-02-01T15:11:27;7.80;99.90
54124;DHT22;55741;53.252;5.788;2023-02-01T15:13:53;7.70;99.90
54124;DHT22;55741;53.252;5.788;2023-02-01T15:16:23;7.70;99.90
54124;DHT22;55741;53.252;5.788;2023-02-01T15:18:50;7.70;99.90
54124;DHT22;55741;53.252;5.788;2023-02-01T15:21:19;7.70;99.90
54124;DHT22;55741;53.252;5.788;2023-02-01T15:23:46;7.70;99.90
54124;DHT22;55741;53.252;5.788;2023-02-01T15:26:28;7.70;99.90
54124;DHT22;55741;53.252;5.788;2023-02-01T15:28:55;7.70;99.90
54124;DHT22;55741;53.252;5.788;2023-02-01T15:31:39;7.60;99.90
54124;DHT22;55741;53.252;5.788;2023-02-01T15:34:07;7.60;99.90
54124;DHT22;55741;53.252;5.788;2023-02-01T15:36:33;7.50;99.90
54124;DHT22;55741;53.252;5.788;2023-02-01T15:39:31;7.50;99.90
54124;DHT22;55741;53.252;5.788;2023-02-01T15:41:58;7.50;99.90
54124;DHT22;55741;53.252;5.788;2023-02-01T15:44:34;7.50;99.90
54124;DHT22;55741;53.252;5.788;2023-02-01T15:47:18;7.40;99.90
54124;DHT22;55741;53.252;5.788;2023-02-01T15:49:51;7.40;99.90
54124;DHT22;55741;53.252;5.788;2023-02-01T15:52:36;7.30;99.90
54124;DHT22;55741;53.252;5.788;2023-02-01T15:55:05;7.30;99.90
54124;DHT22;55741;53.252;5.788;2023-02-01T15:57:36;7.30;99.90
54124;DHT22;55741;53.252;5.788;2023-02-01T16:00:28;7.20;99.90
54124;DHT22;55741;53.252;5.788;2023-02-01T16:02:59;7.20;99.90
54124;DHT22;55741;53.252;5.788;2023-02-01T16:08:06;7.20;99.90
54124;DHT22;55741;53.252;5.788;2023-02-01T16:10:42;7.10;99.90
54124;DHT22;55741;53.252;5.788;2023-02-01T16:13:09;7.10;99.90
54124;DHT22;55741;53.252;5.788;2023-02-01T16:15:34;7.10;99.90
54124;DHT22;55741;53.252;5.788;2023-02-01T16:18:00;7.10;99.90
54124;DHT22;55741;53.252;5.788;2023-02-01T16:20:26;7.00;99.90
54124;DHT22;55741;53.252;5.788;2023-02-01T16:22:52;7.00;99.90
54124;DHT22;55741;53.252;5.788;2023-02-01T16:25:18;7.00;99.90
54124;DHT22;55741;53.252;5.788;2023-02-01T16:27:44;7.00;99.90
54124;DHT22;55741;53.252;5.788;2023-02-01T16:30:10;7.00;99.90
54124;DHT22;55741;53.252;5.788;2023-02-01T16:32:37;6.90;99.90
54124;DHT22;55741;53.252;5.788;2023-02-01T16:35:26;6.90;99.90
54124;DHT22;55741;53.252;5.788;2023-02-01T16:37:52;6.90;99.90
54124;DHT22;55741;53.252;5.788;2023-02-01T16:40:19;7.00;99.90
54124;DHT22;55741;53.252;5.788;2023-02-01T16:42:50;6.90;99.90
54124;DHT22;55741;53.252;5.788;2023-02-01T16:45:16;6.90;99.90
54124;DHT22;55741;53.252;5.788;2023-02-01T16:47:48;6.90;99.90
54124;DHT22;55741;53.252;5.788;2023-02-01T16:50:18;6.90;99.90
54124;DHT22;55741;53.252;5.788;2023-02-01T16:52:46;6.90;99.90
54124;DHT22;55741;53.252;5.788;2023-02-01T16:55:20;6.80;99.90
54124;DHT22;55741;53.252;5.788;2023-02-01T16:57:48;6.80;99.90
54124;DHT22;55741;53.252;5.788;2023-02-01T17:00:14;6.80;99.90
54124;DHT22;55741;53.252;5.788;2023-02-01T17:02:43;6.80;99.90
54124;DHT22;55741;53.252;5.788;2023-02-01T17:05:11;6.80;99.90
54124;DHT22;55741;53.252;5.788;2023-02-01T17:07:38;6.70;99.90
54124;DHT22;55741;53.252;5.788;2023-02-01T17:10:09;6.70;99.90
54124;DHT22;55741;53.252;5.788;2023-02-01T17:12:41;6.70;99.90
54124;DHT22;55741;53.252;5.788;2023-02-01T17:15:08;6.70;99.90
54124;DHT22;55741;53.252;5.788;2023-02-01T17:17:37;6.70;99.90
54124;DHT22;55741;53.252;5.788;2023-02-01T17:20:04;6.70;99.90
54124;DHT22;55741;53.252;5.788;2023-02-01T17:22:31;6.70;99.90
54124;DHT22;55741;53.252;5.788;2023-02-01T17:24:57;6.70;99.90
54124;DHT22;55741;53.252;5.788;2023-02-01T17:27:23;6.70;99.90
54124;DHT22;55741;53.252;5.788;2023-02-01T17:29:49;6.70;99.90
54124;DHT22;55741;53.252;5.788;2023-02-01T17:32:21;6.70;99.90
54124;DHT22;55741;53.252;5.788;2023-02-01T17:34:48;6.70;99.90
54124;DHT22;55741;53.252;5.788;2023-02-01T17:37:29;6.70;99.90
54124;DHT22;55741;53.252;5.788;2023-02-01T17:39:55;6.70;99.90
54124;DHT22;55741;53.252;5.788;2023-02-01T17:42:23;6.70;99.90
54124;DHT22;55741;53.252;5.788;2023-02-01T17:44:52;6.80;99.90
54124;DHT22;55741;53.252;5.788;2023-02-01T17:47:20;6.70;99.90
54124;DHT22;55741;53.252;5.788;2023-02-01T17:49:45;6.80;99.90
54124;DHT22;55741;53.252;5.788;2023-02-01T17:52:17;6.80;99.90
54124;DHT22;55741;53.252;5.788;2023-02-01T17:54:44;6.70;99.90
54124;DHT22;55741;53.252;5.788;2023-02-01T17:57:12;6.70;99.90
54124;DHT22;55741;53.252;5.788;2023-02-01T17:59:39;6.70;99.90
54124;DHT22;55741;53.252;5.788;2023-02-01T18:02:20;6.70;99.90
54124;DHT22;55741;53.252;5.788;2023-02-01T18:04:46;6.70;99.90
54124;DHT22;55741;53.252;5.788;2023-02-01T18:07:12;6.70;99.90
54124;DHT22;55741;53.252;5.788;2023-02-01T18:09:38;6.70;99.90
54124;DHT22;55741;53.252;5.788;2023-02-01T18:12:04;6.70;99.90
54124;DHT22;55741;53.252;5.788;2023-02-01T18:14:30;6.70;99.90
54124;DHT22;55741;53.252;5.788;2023-02-01T18:16:56;6.60;99.90
54124;DHT22;55741;53.252;5.788;2023-02-01T18:19:22;6.60;99.90
54124;DHT22;55741;53.252;5.788;2023-02-01T18:21:48;6.60;99.90
54124;DHT22;55741;53.252;5.788;2023-02-01T18:24:15;6.60;99.90
54124;DHT22;55741;53.252;5.788;2023-02-01T18:26:42;6.60;99.90
54124;DHT22;55741;53.252;5.788;2023-02-01T18:29:08;6.50;99.90
54124;DHT22;55741;53.252;5.788;2023-02-01T18:31:38;6.50;99.90
54124;DHT22;55741;53.252;5.788;2023-02-01T18:34:09;6.50;99.90
54124;DHT22;55741;53.252;5.788;2023-02-01T18:36:35;6.50;99.90
54124;DHT22;55741;53.252;5.788;2023-02-01T18:39:01;6.50;99.90
54124;DHT22;55741;53.252;5.788;2023-02-01T18:41:27;6.50;99.90
54124;DHT22;55741;53.252;5.788;2023-02-01T18:43:53;6.50;99.90
54124;DHT22;55741;53.252;5.788;2023-02-01T18:46:19;6.50;99.90
54124;DHT22;55741;53.252;5.788;2023-02-01T18:48:47;6.50;99.90
54124;DHT22;55741;53.252;5.788;2023-02-01T18:51:18;6.50;99.90